sensor_id;sensor_type;location;lat;lon;timestamp;P1;durP1;ratioP1;P2;durP2;ratioP2
40453;SDS011;26160;51.858;4.398;2024-03-29T00:01:33;6.17;;;1.20;;
40453;SDS011;26160;51.858;4.398;2024-03-29T00:03:59;7.40;;;0.90;;
40453;SDS011;26160;51.858;4.398;2024-03-29T00:06:25;10.73;;;1.30;;
40453;SDS011;26160;51.858;4.398;2024-03-29T00:08:52;10.00;;;1.67;;
40453;SDS011;26160;51.858;4.398;2024-03-29T00:11:18;10.23;;;1.80;;
40453;SDS011;26160;51.858;4.398;2024-03-29T00:13:44;6.97;;;1.40;;
40453;SDS011;26160;51.858;4.398;2024-03-29T00:16:10;6.70;;;1.73;;
40453;SDS011;26160;51.858;4.398;2024-03-29T00:18:37;8.10;;;1.50;;
40453;SDS011;26160;51.858;4.398;2024-03-29T00:21:03;8.63;;;1.30;;
40453;SDS011;26160;51.858;4.398;2024-03-29T00:23:29;10.50;;;1.60;;
40453;SDS011;26160;51.858;4.398;2024-03-29T00:25:56;8.83;;;1.50;;
40453;SDS011;26160;51.858;4.398;2024-03-29T00:28:23;9.27;;;1.40;;
40453;SDS011;26160;51.858;4.398;2024-03-29T00:30:49;5.50;;;1.30;;
40453;SDS011;26160;51.858;4.398;2024-03-29T00:33:16;11.87;;;1.50;;
40453;SDS011;26160;51.858;4.398;2024-03-29T00:35:45;6.30;;;1.23;;
40453;SDS011;26160;51.858;4.398;2024-03-29T00:38:11;7.30;;;1.23;;
40453;SDS011;26160;51.858;4.398;2024-03-29T00:40:37;5.17;;;1.60;;
40453;SDS011;26160;51.858;4.398;2024-03-29T00:43:03;9.40;;;1.20;;
40453;SDS011;26160;51.858;4.398;2024-03-29T00:45:29;7.67;;;1.93;;
40453;SDS011;26160;51.858;4.398;2024-03-29T00:47:56;6.63;;;1.40;;
40453;SDS011;26160;51.858;4.398;2024-03-29T00:50:22;7.60;;;1.33;;
40453;SDS011;26160;51.858;4.398;2024-03-29T00:52:48;8.37;;;1.50;;
40453;SDS011;26160;51.858;4.398;2024-03-29T00:55:14;6.10;;;1.03;;
40453;SDS011;26160;51.858;4.398;2024-03-29T00:57:40;10.83;;;2.10;;
40453;SDS011;26160;51.858;4.398;2024-03-29T01:00:07;11.20;;;1.83;;
40453;SDS011;26160;51.858;4.398;2024-03-29T01:02:35;7.63;;;1.43;;
40453;SDS011;26160;51.858;4.398;2024-03-29T01:05:02;4.50;;;1.10;;
40453;SDS011;26160;51.858;4.398;2024-03-29T01:07:28;7.83;;;1.17;;
40453;SDS011;26160;51.858;4.398;2024-03-29T01:09:54;7.53;;;1.30;;
40453;SDS011;26160;51.858;4.398;2024-03-29T01:12:20;7.57;;;1.30;;
40453;SDS011;26160;51.858;4.398;2024-03-29T01:14:46;12.23;;;2.03;;
40453;SDS011;26160;51.858;4.398;2024-03-29T01:17:13;7.70;;;1.17;;
40453;SDS011;26160;51.858;4.398;2024-03-29T01:19:39;5.70;;;1.37;;
40453;SDS011;26160;51.858;4.398;2024-03-29T01:22:05;7.67;;;1.73;;
40453;SDS011;26160;51.858;4.398;2024-03-29T01:24:31;13.23;;;2.13;;
40453;SDS011;26160;51.858;4.398;2024-03-29T01:26:57;5.80;;;1.20;;
40453;SDS011;26160;51.858;4.398;2024-03-29T01:29:24;5.77;;;1.63;;
40453;SDS011;26160;51.858;4.398;2024-03-29T01:31:50;7.63;;;1.43;;
40453;SDS011;26160;51.858;4.398;2024-03-29T01:34:16;9.20;;;1.47;;
40453;SDS011;26160;51.858;4.398;2024-03-29T01:36:43;6.83;;;1.10;;
40453;SDS011;26160;51.858;4.398;2024-03-29T01:39:09;7.27;;;1.30;;
40453;SDS011;26160;51.858;4.398;2024-03-29T01:41:39;7.23;;;1.70;;
40453;SDS011;26160;51.858;4.398;2024-03-29T01:44:06;8.60;;;1.70;;
40453;SDS011;26160;51.858;4.398;2024-03-29T01:46:32;4.70;;;1.00;;
40453;SDS011;26160;51.858;4.398;2024-03-29T01:49:01;7.60;;;1.13;;
40453;SDS011;26160;51.858;4.398;2024-03-29T01:51:29;8.17;;;1.57;;
40453;SDS011;26160;51.858;4.398;2024-03-29T01:53:55;9.53;;;1.63;;
40453;SDS011;26160;51.858;4.398;2024-03-29T01:56:22;6.27;;;1.40;;
40453;SDS011;26160;51.858;4.398;2024-03-29T01:58:49;8.10;;;1.50;;
40453;SDS011;26160;51.858;4.398;2024-03-29T02:03:52;7.60;;;1.30;;
40453;SDS011;26160;51.858;4.398;2024-03-29T02:06:19;6.67;;;1.30;;
40453;SDS011;26160;51.858;4.398;2024-03-29T02:08:46;7.87;;;1.73;;
40453;SDS011;26160;51.858;4.398;2024-03-29T02:11:17;7.70;;;1.37;;
40453;SDS011;26160;51.858;4.398;2024-03-29T02:13:43;9.20;;;2.03;;
40453;SDS011;26160;51.858;4.398;2024-03-29T02:16:10;5.63;;;1.03;;
40453;SDS011;26160;51.858;4.398;2024-03-29T02:18:36;7.63;;;1.50;;
40453;SDS011;26160;51.858;4.398;2024-03-29T02:21:02;7.33;;;1.67;;
40453;SDS011;26160;51.858;4.398;2024-03-29T02:23:29;5.73;;;1.13;;
40453;SDS011;26160;51.858;4.398;2024-03-29T02:25:57;7.63;;;1.30;;
40453;SDS011;26160;51.858;4.398;2024-03-29T02:28:24;11.77;;;1.43;;
40453;SDS011;26160;51.858;4.398;2024-03-29T02:30:50;7.60;;;1.43;;
40453;SDS011;26160;51.858;4.398;2024-03-29T02:33:17;6.33;;;1.40;;
40453;SDS011;26160;51.858;4.398;2024-03-29T02:35:43;9.67;;;1.47;;
40453;SDS011;26160;51.858;4.398;2024-03-29T02:38:09;4.73;;;1.10;;
40453;SDS011;26160;51.858;4.398;2024-03-29T02:40:35;5.17;;;1.20;;
40453;SDS011;26160;51.858;4.398;2024-03-29T02:43:01;13.40;;;1.50;;
40453;SDS011;26160;51.858;4.398;2024-03-29T02:45:27;4.60;;;1.20;;
40453;SDS011;26160;51.858;4.398;2024-03-29T02:47:53;5.83;;;1.00;;
40453;SDS011;26160;51.858;4.398;2024-03-29T02:50:20;8.53;;;1.03;;
40453;SDS011;26160;51.858;4.398;2024-03-29T02:52:46;6.70;;;1.40;;
40453;SDS011;26160;51.858;4.398;2024-03-29T02:55:12;6.20;;;0.93;;
40453;SDS011;26160;51.858;4.398;2024-03-29T02:57:39;9.10;;;1.33;;
40453;SDS011;26160;51.858;4.398;2024-03-29T03:00:05;3.57;;;1.20;;
40453;SDS011;26160;51.858;4.398;2024-03-29T03:02:36;5.40;;;0.80;;
40453;SDS011;26160;51.858;4.398;2024-03-29T03:05:07;4.90;;;1.50;;
40453;SDS011;26160;51.858;4.398;2024-03-29T03:07:34;1.73;;;0.80;;
40453;SDS011;26160;51.858;4.398;2024-03-29T03:10:19;2.50;;;0.77;;
40453;SDS011;26160;51.858;4.398;2024-03-29T03:13:04;5.00;;;0.70;;
40453;SDS011;26160;51.858;4.398;2024-03-29T03:15:30;2.27;;;0.70;;
40453;SDS011;26160;51.858;4.398;2024-03-29T03:17:57;4.90;;;0.80;;
40453;SDS011;26160;51.858;4.398;2024-03-29T03:20:23;4.47;;;0.80;;
40453;SDS011;26160;51.858;4.398;2024-03-29T03:22:53;3.60;;;0.90;;
40453;SDS011;26160;51.858;4.398;2024-03-29T03:25:21;2.17;;;0.70;;
40453;SDS011;26160;51.858;4.398;2024-03-29T03:27:47;5.07;;;0.60;;
40453;SDS011;26160;51.858;4.398;2024-03-29T03:30:13;3.40;;;0.77;;
40453;SDS011;26160;51.858;4.398;2024-03-29T03:32:40;4.73;;;0.60;;
40453;SDS011;26160;51.858;4.398;2024-03-29T03:35:07;4.47;;;0.83;;
40453;SDS011;26160;51.858;4.398;2024-03-29T03:37:34;4.50;;;0.70;;
40453;SDS011;26160;51.858;4.398;2024-03-29T03:40:00;4.80;;;0.70;;
40453;SDS011;26160;51.858;4.398;2024-03-29T03:42:26;2.87;;;0.70;;
40453;SDS011;26160;51.858;4.398;2024-03-29T03:44:52;3.60;;;0.83;;
40453;SDS011;26160;51.858;4.398;2024-03-29T03:47:18;5.23;;;0.90;;
40453;SDS011;26160;51.858;4.398;2024-03-29T03:49:45;6.13;;;0.63;;
40453;SDS011;26160;51.858;4.398;2024-03-29T03:52:11;3.10;;;0.67;;
40453;SDS011;26160;51.858;4.398;2024-03-29T03:54:37;3.73;;;0.67;;
40453;SDS011;26160;51.858;4.398;2024-03-29T03:57:03;4.30;;;0.90;;
40453;SDS011;26160;51.858;4.398;2024-03-29T03:59:30;2.53;;;0.80;;
40453;SDS011;26160;51.858;4.398;2024-03-29T04:01:56;2.70;;;0.80;;
40453;SDS011;26160;51.858;4.398;2024-03-29T04:04:22;0.93;;;0.50;;
40453;SDS011;26160;51.858;4.398;2024-03-29T04:06:48;2.40;;;0.70;;
40453;SDS011;26160;51.858;4.398;2024-03-29T04:09:15;3.97;;;0.53;;
40453;SDS011;26160;51.858;4.398;2024-03-29T04:11:41;1.77;;;0.50;;
40453;SDS011;26160;51.858;4.398;2024-03-29T04:14:08;2.50;;;0.53;;
40453;SDS011;26160;51.858;4.398;2024-03-29T04:16:35;2.27;;;0.40;;
40453;SDS011;26160;51.858;4.398;2024-03-29T04:19:01;1.90;;;0.33;;
40453;SDS011;26160;51.858;4.398;2024-03-29T04:21:27;2.40;;;0.50;;
40453;SDS011;26160;51.858;4.398;2024-03-29T04:23:53;2.33;;;0.67;;
40453;SDS011;26160;51.858;4.398;2024-03-29T04:26:19;2.83;;;0.40;;
40453;SDS011;26160;51.858;4.398;2024-03-29T04:28:45;1.80;;;0.60;;
40453;SDS011;26160;51.858;4.398;2024-03-29T04:31:11;2.17;;;0.30;;
40453;SDS011;26160;51.858;4.398;2024-03-29T04:33:37;1.10;;;0.47;;
40453;SDS011;26160;51.858;4.398;2024-03-29T04:36:04;2.20;;;0.50;;
40453;SDS011;26160;51.858;4.398;2024-03-29T04:38:30;3.90;;;0.50;;
40453;SDS011;26160;51.858;4.398;2024-03-29T04:40:57;1.73;;;0.60;;
40453;SDS011;26160;51.858;4.398;2024-03-29T04:43:24;0.83;;;0.40;;
40453;SDS011;26160;51.858;4.398;2024-03-29T04:46:01;2.97;;;0.50;;
40453;SDS011;26160;51.858;4.398;2024-03-29T04:48:31;1.43;;;0.50;;
40453;SDS011;26160;51.858;4.398;2024-03-29T04:50:57;2.83;;;0.50;;
40453;SDS011;26160;51.858;4.398;2024-03-29T04:53:23;2.87;;;0.47;;
40453;SDS011;26160;51.858;4.398;2024-03-29T04:55:53;1.27;;;0.40;;
40453;SDS011;26160;51.858;4.398;2024-03-29T04:58:21;2.20;;;0.57;;
40453;SDS011;26160;51.858;4.398;2024-03-29T05:00:48;2.00;;;0.30;;
40453;SDS011;26160;51.858;4.398;2024-03-29T05:03:18;1.83;;;0.43;;
40453;SDS011;26160;51.858;4.398;2024-03-29T05:05:45;2.40;;;0.60;;
40453;SDS011;26160;51.858;4.398;2024-03-29T05:08:12;1.07;;;0.40;;
40453;SDS011;26160;51.858;4.398;2024-03-29T05:10:41;1.67;;;0.30;;
40453;SDS011;26160;51.858;4.398;2024-03-29T05:13:08;1.50;;;0.40;;
40453;SDS011;26160;51.858;4.398;2024-03-29T05:15:34;2.00;;;0.40;;
40453;SDS011;26160;51.858;4.398;2024-03-29T05:18:01;3.30;;;0.60;;
40453;SDS011;26160;51.858;4.398;2024-03-29T05:20:27;3.93;;;0.60;;
40453;SDS011;26160;51.858;4.398;2024-03-29T05:22:53;1.23;;;0.50;;
40453;SDS011;26160;51.858;4.398;2024-03-29T05:25:19;4.17;;;0.80;;
40453;SDS011;26160;51.858;4.398;2024-03-29T05:27:45;2.53;;;0.80;;
40453;SDS011;26160;51.858;4.398;2024-03-29T05:30:11;1.50;;;0.60;;
40453;SDS011;26160;51.858;4.398;2024-03-29T05:32:38;2.27;;;0.70;;
40453;SDS011;26160;51.858;4.398;2024-03-29T05:35:05;2.47;;;0.70;;
40453;SDS011;26160;51.858;4.398;2024-03-29T05:37:31;2.07;;;0.73;;
40453;SDS011;26160;51.858;4.398;2024-03-29T05:39:57;1.87;;;0.57;;
40453;SDS011;26160;51.858;4.398;2024-03-29T05:42:29;6.20;;;1.10;;
40453;SDS011;26160;51.858;4.398;2024-03-29T05:44:57;2.63;;;0.50;;
40453;SDS011;26160;51.858;4.398;2024-03-29T05:47:23;4.50;;;1.00;;
40453;SDS011;26160;51.858;4.398;2024-03-29T05:49:49;2.10;;;1.10;;
40453;SDS011;26160;51.858;4.398;2024-03-29T05:52:16;3.50;;;1.10;;
40453;SDS011;26160;51.858;4.398;2024-03-29T05:54:43;2.13;;;0.63;;
40453;SDS011;26160;51.858;4.398;2024-03-29T05:57:10;2.17;;;0.67;;
40453;SDS011;26160;51.858;4.398;2024-03-29T05:59:37;2.73;;;0.70;;
40453;SDS011;26160;51.858;4.398;2024-03-29T06:02:04;2.77;;;0.70;;
40453;SDS011;26160;51.858;4.398;2024-03-29T06:04:30;4.60;;;0.90;;
40453;SDS011;26160;51.858;4.398;2024-03-29T06:07:01;4.93;;;0.70;;
40453;SDS011;26160;51.858;4.398;2024-03-29T06:09:28;4.50;;;0.70;;
40453;SDS011;26160;51.858;4.398;2024-03-29T06:11:56;2.57;;;0.80;;
40453;SDS011;26160;51.858;4.398;2024-03-29T06:14:23;2.37;;;0.70;;
40453;SDS011;26160;51.858;4.398;2024-03-29T06:17:08;3.33;;;0.90;;
40453;SDS011;26160;51.858;4.398;2024-03-29T06:19:54;1.85;;;0.60;;
40453;SDS011;26160;51.858;4.398;2024-03-29T06:22:22;2.00;;;0.63;;
40453;SDS011;26160;51.858;4.398;2024-03-29T06:24:49;2.90;;;0.80;;
40453;SDS011;26160;51.858;4.398;2024-03-29T06:27:19;3.17;;;1.07;;
40453;SDS011;26160;51.858;4.398;2024-03-29T06:29:49;2.17;;;0.80;;
40453;SDS011;26160;51.858;4.398;2024-03-29T06:32:15;5.53;;;1.00;;
40453;SDS011;26160;51.858;4.398;2024-03-29T06:34:46;3.40;;;1.37;;
40453;SDS011;26160;51.858;4.398;2024-03-29T06:37:13;4.03;;;1.00;;
40453;SDS011;26160;51.858;4.398;2024-03-29T06:39:39;1.97;;;0.70;;
40453;SDS011;26160;51.858;4.398;2024-03-29T06:42:07;1.77;;;0.67;;
40453;SDS011;26160;51.858;4.398;2024-03-29T06:44:34;2.47;;;0.70;;
40453;SDS011;26160;51.858;4.398;2024-03-29T06:47:00;2.77;;;0.63;;
40453;SDS011;26160;51.858;4.398;2024-03-29T06:49:26;3.93;;;0.70;;
40453;SDS011;26160;51.858;4.398;2024-03-29T06:51:52;2.27;;;1.03;;
40453;SDS011;26160;51.858;4.398;2024-03-29T06:54:19;4.17;;;1.00;;
40453;SDS011;26160;51.858;4.398;2024-03-29T06:56:48;3.20;;;0.80;;
40453;SDS011;26160;51.858;4.398;2024-03-29T06:59:15;2.00;;;0.77;;
40453;SDS011;26160;51.858;4.398;2024-03-29T07:01:41;2.97;;;0.90;;
40453;SDS011;26160;51.858;4.398;2024-03-29T07:04:07;3.53;;;1.07;;
40453;SDS011;26160;51.858;4.398;2024-03-29T07:06:33;1.57;;;0.93;;
40453;SDS011;26160;51.858;4.398;2024-03-29T07:08:59;3.93;;;1.07;;
40453;SDS011;26160;51.858;4.398;2024-03-29T07:11:25;2.70;;;1.10;;
40453;SDS011;26160;51.858;4.398;2024-03-29T07:13:51;2.93;;;1.20;;
40453;SDS011;26160;51.858;4.398;2024-03-29T07:16:18;3.87;;;1.40;;
40453;SDS011;26160;51.858;4.398;2024-03-29T07:18:44;4.17;;;1.43;;
40453;SDS011;26160;51.858;4.398;2024-03-29T07:21:10;2.70;;;1.20;;
40453;SDS011;26160;51.858;4.398;2024-03-29T07:23:36;3.00;;;1.40;;
40453;SDS011;26160;51.858;4.398;2024-03-29T07:26:03;5.57;;;2.53;;
40453;SDS011;26160;51.858;4.398;2024-03-29T07:28:30;4.27;;;2.27;;
40453;SDS011;26160;51.858;4.398;2024-03-29T07:30:57;4.37;;;1.97;;
40453;SDS011;26160;51.858;4.398;2024-03-29T07:33:23;5.17;;;2.47;;
40453;SDS011;26160;51.858;4.398;2024-03-29T07:35:54;3.73;;;2.40;;
40453;SDS011;26160;51.858;4.398;2024-03-29T07:38:23;6.97;;;2.40;;
40453;SDS011;26160;51.858;4.398;2024-03-29T07:40:50;4.80;;;2.47;;
40453;SDS011;26160;51.858;4.398;2024-03-29T07:43:17;3.13;;;2.63;;
40453;SDS011;26160;51.858;4.398;2024-03-29T07:45:44;3.53;;;2.43;;
40453;SDS011;26160;51.858;4.398;2024-03-29T07:48:11;5.43;;;2.70;;
40453;SDS011;26160;51.858;4.398;2024-03-29T07:50:39;2.93;;;2.60;;
40453;SDS011;26160;51.858;4.398;2024-03-29T07:53:06;4.77;;;2.30;;
40453;SDS011;26160;51.858;4.398;2024-03-29T07:55:34;5.23;;;2.77;;
40453;SDS011;26160;51.858;4.398;2024-03-29T07:58:01;5.27;;;2.90;;
40453;SDS011;26160;51.858;4.398;2024-03-29T08:00:30;3.17;;;2.60;;
40453;SDS011;26160;51.858;4.398;2024-03-29T08:02:57;7.07;;;3.07;;
40453;SDS011;26160;51.858;4.398;2024-03-29T08:05:23;5.50;;;3.03;;
40453;SDS011;26160;51.858;4.398;2024-03-29T08:07:49;5.80;;;2.80;;
40453;SDS011;26160;51.858;4.398;2024-03-29T08:10:15;4.20;;;2.27;;
40453;SDS011;26160;51.858;4.398;2024-03-29T08:12:42;2.90;;;2.10;;
40453;SDS011;26160;51.858;4.398;2024-03-29T08:15:08;3.00;;;2.00;;
40453;SDS011;26160;51.858;4.398;2024-03-29T08:17:34;2.07;;;1.67;;
40453;SDS011;26160;51.858;4.398;2024-03-29T08:20:01;3.63;;;1.73;;
40453;SDS011;26160;51.858;4.398;2024-03-29T08:22:28;5.57;;;1.83;;
40453;SDS011;26160;51.858;4.398;2024-03-29T08:24:55;2.58;;;1.38;;
40453;SDS011;26160;51.858;4.398;2024-03-29T08:27:21;1.83;;;1.30;;
40453;SDS011;26160;51.858;4.398;2024-03-29T08:29:47;2.63;;;1.65;;
40453;SDS011;26160;51.858;4.398;2024-03-29T08:32:15;2.85;;;1.80;;
40453;SDS011;26160;51.858;4.398;2024-03-29T08:34:42;3.92;;;1.55;;
40453;SDS011;26160;51.858;4.398;2024-03-29T08:37:08;3.92;;;1.40;;
40453;SDS011;26160;51.858;4.398;2024-03-29T08:39:34;3.20;;;1.00;;
40453;SDS011;26160;51.858;4.398;2024-03-29T08:42:03;2.63;;;1.10;;
40453;SDS011;26160;51.858;4.398;2024-03-29T08:44:34;1.58;;;0.95;;
40453;SDS011;26160;51.858;4.398;2024-03-29T08:47:01;1.30;;;1.10;;
40453;SDS011;26160;51.858;4.398;2024-03-29T08:49:28;2.17;;;1.02;;
40453;SDS011;26160;51.858;4.398;2024-03-29T08:51:58;2.47;;;1.20;;
40453;SDS011;26160;51.858;4.398;2024-03-29T08:54:25;2.20;;;0.90;;
40453;SDS011;26160;51.858;4.398;2024-03-29T08:56:53;3.13;;;1.10;;
40453;SDS011;26160;51.858;4.398;2024-03-29T08:59:19;1.00;;;0.82;;
40453;SDS011;26160;51.858;4.398;2024-03-29T09:01:45;1.95;;;0.90;;
40453;SDS011;26160;51.858;4.398;2024-03-29T09:04:15;5.07;;;1.02;;
40453;SDS011;26160;51.858;4.398;2024-03-29T09:06:41;1.02;;;0.70;;
40453;SDS011;26160;51.858;4.398;2024-03-29T09:09:08;1.80;;;0.70;;
40453;SDS011;26160;51.858;4.398;2024-03-29T09:11:35;1.13;;;0.70;;
40453;SDS011;26160;51.858;4.398;2024-03-29T09:14:01;4.20;;;0.95;;
40453;SDS011;26160;51.858;4.398;2024-03-29T09:16:30;0.60;;;0.60;;
40453;SDS011;26160;51.858;4.398;2024-03-29T09:18:56;1.65;;;0.90;;
40453;SDS011;26160;51.858;4.398;2024-03-29T09:21:22;0.75;;;0.63;;
40453;SDS011;26160;51.858;4.398;2024-03-29T09:23:49;2.25;;;0.85;;
40453;SDS011;26160;51.858;4.398;2024-03-29T09:26:18;4.72;;;1.05;;
40453;SDS011;26160;51.858;4.398;2024-03-29T09:28:44;1.52;;;0.70;;
40453;SDS011;26160;51.858;4.398;2024-03-29T09:31:10;2.30;;;1.08;;
40453;SDS011;26160;51.858;4.398;2024-03-29T09:33:37;3.50;;;0.75;;
40453;SDS011;26160;51.858;4.398;2024-03-29T09:36:03;1.15;;;0.73;;
40453;SDS011;26160;51.858;4.398;2024-03-29T09:38:30;8.32;;;1.00;;
40453;SDS011;26160;51.858;4.398;2024-03-29T09:41:15;2.13;;;1.00;;
40453;SDS011;26160;51.858;4.398;2024-03-29T09:43:43;2.38;;;1.10;;
40453;SDS011;26160;51.858;4.398;2024-03-29T09:46:13;3.67;;;1.00;;
40453;SDS011;26160;51.858;4.398;2024-03-29T09:48:40;1.33;;;0.80;;
40453;SDS011;26160;51.858;4.398;2024-03-29T09:51:07;1.45;;;0.93;;
40453;SDS011;26160;51.858;4.398;2024-03-29T09:53:34;2.22;;;0.80;;
40453;SDS011;26160;51.858;4.398;2024-03-29T09:56:04;3.78;;;1.15;;
40453;SDS011;26160;51.858;4.398;2024-03-29T09:58:32;2.47;;;1.05;;
40453;SDS011;26160;51.858;4.398;2024-03-29T10:00:59;3.00;;;1.00;;
40453;SDS011;26160;51.858;4.398;2024-03-29T10:03:26;2.75;;;0.90;;
40453;SDS011;26160;51.858;4.398;2024-03-29T10:05:58;2.55;;;1.02;;
40453;SDS011;26160;51.858;4.398;2024-03-29T10:08:29;7.25;;;1.35;;
40453;SDS011;26160;51.858;4.398;2024-03-29T10:10:59;6.00;;;1.08;;
40453;SDS011;26160;51.858;4.398;2024-03-29T10:13:25;5.50;;;1.48;;
40453;SDS011;26160;51.858;4.398;2024-03-29T10:15:52;3.75;;;1.33;;
40453;SDS011;26160;51.858;4.398;2024-03-29T10:18:24;4.93;;;1.65;;
40453;SDS011;26160;51.858;4.398;2024-03-29T10:20:58;6.25;;;1.73;;
40453;SDS011;26160;51.858;4.398;2024-03-29T10:23:25;2.58;;;1.63;;
40453;SDS011;26160;51.858;4.398;2024-03-29T10:25:52;3.47;;;1.70;;
40453;SDS011;26160;51.858;4.398;2024-03-29T10:28:21;3.90;;;1.90;;
40453;SDS011;26160;51.858;4.398;2024-03-29T10:30:48;3.05;;;1.80;;
40453;SDS011;26160;51.858;4.398;2024-03-29T10:33:15;2.80;;;1.77;;
40453;SDS011;26160;51.858;4.398;2024-03-29T10:35:42;3.58;;;1.75;;
40453;SDS011;26160;51.858;4.398;2024-03-29T10:38:11;5.28;;;2.30;;
40453;SDS011;26160;51.858;4.398;2024-03-29T10:40:38;3.78;;;1.80;;
40453;SDS011;26160;51.858;4.398;2024-03-29T10:43:09;6.28;;;1.80;;
40453;SDS011;26160;51.858;4.398;2024-03-29T10:45:39;2.40;;;1.75;;
40453;SDS011;26160;51.858;4.398;2024-03-29T10:48:05;4.72;;;1.85;;
40453;SDS011;26160;51.858;4.398;2024-03-29T10:50:35;3.47;;;1.58;;
40453;SDS011;26160;51.858;4.398;2024-03-29T10:53:02;3.15;;;1.65;;
40453;SDS011;26160;51.858;4.398;2024-03-29T10:55:29;4.13;;;1.88;;
40453;SDS011;26160;51.858;4.398;2024-03-29T10:57:58;4.80;;;1.80;;
40453;SDS011;26160;51.858;4.398;2024-03-29T11:00:31;6.45;;;1.98;;
40453;SDS011;26160;51.858;4.398;2024-03-29T11:05:38;3.13;;;2.13;;
40453;SDS011;26160;51.858;4.398;2024-03-29T11:08:19;4.40;;;2.63;;
40453;SDS011;26160;51.858;4.398;2024-03-29T11:10:53;2.72;;;1.92;;
40453;SDS011;26160;51.858;4.398;2024-03-29T11:16:10;3.67;;;2.03;;
40453;SDS011;26160;51.858;4.398;2024-03-29T11:18:37;4.72;;;2.35;;
40453;SDS011;26160;51.858;4.398;2024-03-29T11:21:04;5.55;;;1.98;;
40453;SDS011;26160;51.858;4.398;2024-03-29T11:23:33;2.90;;;2.00;;
40453;SDS011;26160;51.858;4.398;2024-03-29T11:26:00;3.95;;;2.50;;
40453;SDS011;26160;51.858;4.398;2024-03-29T11:28:31;3.50;;;2.10;;
40453;SDS011;26160;51.858;4.398;2024-03-29T11:31:00;3.38;;;2.92;;
40453;SDS011;26160;51.858;4.398;2024-03-29T11:33:32;5.05;;;2.85;;
40453;SDS011;26160;51.858;4.398;2024-03-29T11:36:00;4.60;;;3.38;;
40453;SDS011;26160;51.858;4.398;2024-03-29T11:38:42;4.90;;;3.25;;
40453;SDS011;26160;51.858;4.398;2024-03-29T11:41:11;5.25;;;3.42;;
40453;SDS011;26160;51.858;4.398;2024-03-29T11:43:39;5.50;;;3.22;;
40453;SDS011;26160;51.858;4.398;2024-03-29T11:46:06;4.57;;;4.10;;
40453;SDS011;26160;51.858;4.398;2024-03-29T11:48:34;5.75;;;4.47;;
40453;SDS011;26160;51.858;4.398;2024-03-29T11:51:02;4.40;;;4.00;;
40453;SDS011;26160;51.858;4.398;2024-03-29T11:53:30;4.60;;;4.20;;
40453;SDS011;26160;51.858;4.398;2024-03-29T11:56:00;5.68;;;4.57;;
40453;SDS011;26160;51.858;4.398;2024-03-29T11:58:27;4.05;;;3.53;;
40453;SDS011;26160;51.858;4.398;2024-03-29T12:00:55;6.05;;;3.88;;
40453;SDS011;26160;51.858;4.398;2024-03-29T12:03:22;3.70;;;3.20;;
40453;SDS011;26160;51.858;4.398;2024-03-29T12:05:51;4.43;;;2.97;;
40453;SDS011;26160;51.858;4.398;2024-03-29T12:08:20;4.75;;;2.75;;
40453;SDS011;26160;51.858;4.398;2024-03-29T12:10:47;3.15;;;2.83;;
40453;SDS011;26160;51.858;4.398;2024-03-29T12:13:15;3.70;;;2.97;;
40453;SDS011;26160;51.858;4.398;2024-03-29T12:15:42;3.30;;;2.97;;
40453;SDS011;26160;51.858;4.398;2024-03-29T12:18:09;5.60;;;2.88;;
40453;SDS011;26160;51.858;4.398;2024-03-29T12:20:40;5.10;;;3.00;;
40453;SDS011;26160;51.858;4.398;2024-03-29T12:23:08;4.30;;;2.63;;
40453;SDS011;26160;51.858;4.398;2024-03-29T12:25:35;6.78;;;2.45;;
40453;SDS011;26160;51.858;4.398;2024-03-29T12:28:03;3.47;;;2.15;;
40453;SDS011;26160;51.858;4.398;2024-03-29T12:30:30;4.07;;;2.40;;
40453;SDS011;26160;51.858;4.398;2024-03-29T12:33:00;4.28;;;1.88;;
40453;SDS011;26160;51.858;4.398;2024-03-29T12:35:27;4.97;;;2.00;;
40453;SDS011;26160;51.858;4.398;2024-03-29T12:37:57;4.30;;;1.77;;
40453;SDS011;26160;51.858;4.398;2024-03-29T12:40:27;2.28;;;1.75;;
40453;SDS011;26160;51.858;4.398;2024-03-29T12:42:57;4.30;;;1.80;;
40453;SDS011;26160;51.858;4.398;2024-03-29T12:45:24;4.68;;;2.25;;
40453;SDS011;26160;51.858;4.398;2024-03-29T12:47:51;4.50;;;2.03;;
40453;SDS011;26160;51.858;4.398;2024-03-29T12:50:28;4.97;;;1.98;;
40453;SDS011;26160;51.858;4.398;2024-03-29T12:52:56;7.72;;;1.80;;
40453;SDS011;26160;51.858;4.398;2024-03-29T12:55:24;2.25;;;1.38;;
40453;SDS011;26160;51.858;4.398;2024-03-29T12:57:53;7.13;;;1.92;;
40453;SDS011;26160;51.858;4.398;2024-03-29T13:00:20;4.43;;;1.67;;
40453;SDS011;26160;51.858;4.398;2024-03-29T13:02:46;5.05;;;1.52;;
40453;SDS011;26160;51.858;4.398;2024-03-29T13:05:12;2.60;;;1.42;;
40453;SDS011;26160;51.858;4.398;2024-03-29T13:07:39;5.47;;;1.70;;
40453;SDS011;26160;51.858;4.398;2024-03-29T13:10:05;3.47;;;1.38;;
40453;SDS011;26160;51.858;4.398;2024-03-29T13:12:39;7.10;;;2.10;;
40453;SDS011;26160;51.858;4.398;2024-03-29T13:15:14;1.92;;;1.35;;
40453;SDS011;26160;51.858;4.398;2024-03-29T13:17:41;4.70;;;1.75;;
40453;SDS011;26160;51.858;4.398;2024-03-29T13:20:07;4.15;;;1.67;;
40453;SDS011;26160;51.858;4.398;2024-03-29T13:22:35;3.10;;;1.60;;
40453;SDS011;26160;51.858;4.398;2024-03-29T13:25:02;5.53;;;1.40;;
40453;SDS011;26160;51.858;4.398;2024-03-29T13:27:30;2.13;;;1.27;;
40453;SDS011;26160;51.858;4.398;2024-03-29T13:29:57;4.28;;;1.30;;
40453;SDS011;26160;51.858;4.398;2024-03-29T13:32:23;2.67;;;1.17;;
40453;SDS011;26160;51.858;4.398;2024-03-29T13:34:49;2.58;;;1.20;;
40453;SDS011;26160;51.858;4.398;2024-03-29T13:37:16;3.97;;;1.15;;
40453;SDS011;26160;51.858;4.398;2024-03-29T13:39:42;3.03;;;1.20;;
40453;SDS011;26160;51.858;4.398;2024-03-29T13:42:08;3.50;;;1.13;;
40453;SDS011;26160;51.858;4.398;2024-03-29T13:44:34;1.90;;;1.20;;
40453;SDS011;26160;51.858;4.398;2024-03-29T13:47:00;3.17;;;1.40;;
40453;SDS011;26160;51.858;4.398;2024-03-29T13:49:29;6.57;;;1.63;;
40453;SDS011;26160;51.858;4.398;2024-03-29T13:51:55;2.88;;;1.30;;
40453;SDS011;26160;51.858;4.398;2024-03-29T13:54:22;2.17;;;1.13;;
40453;SDS011;26160;51.858;4.398;2024-03-29T13:56:49;1.67;;;1.10;;
40453;SDS011;26160;51.858;4.398;2024-03-29T13:59:15;4.38;;;1.48;;
40453;SDS011;26160;51.858;4.398;2024-03-29T14:01:41;3.33;;;1.55;;
40453;SDS011;26160;51.858;4.398;2024-03-29T14:04:08;4.10;;;1.38;;
40453;SDS011;26160;51.858;4.398;2024-03-29T14:06:35;3.80;;;1.60;;
40453;SDS011;26160;51.858;4.398;2024-03-29T14:09:01;3.15;;;1.45;;
40453;SDS011;26160;51.858;4.398;2024-03-29T14:11:27;3.40;;;1.77;;
40453;SDS011;26160;51.858;4.398;2024-03-29T14:13:54;3.92;;;1.40;;
40453;SDS011;26160;51.858;4.398;2024-03-29T14:16:22;2.97;;;1.40;;
40453;SDS011;26160;51.858;4.398;2024-03-29T14:18:48;4.78;;;1.42;;
40453;SDS011;26160;51.858;4.398;2024-03-29T14:21:14;2.60;;;1.13;;
40453;SDS011;26160;51.858;4.398;2024-03-29T14:23:40;2.55;;;1.27;;
40453;SDS011;26160;51.858;4.398;2024-03-29T14:26:07;6.97;;;1.25;;
40453;SDS011;26160;51.858;4.398;2024-03-29T14:28:33;3.53;;;1.13;;
40453;SDS011;26160;51.858;4.398;2024-03-29T14:30:59;2.67;;;1.02;;
40453;SDS011;26160;51.858;4.398;2024-03-29T14:33:25;1.70;;;0.98;;
40453;SDS011;26160;51.858;4.398;2024-03-29T14:35:51;3.55;;;1.05;;
40453;SDS011;26160;51.858;4.398;2024-03-29T14:38:17;1.83;;;1.08;;
40453;SDS011;26160;51.858;4.398;2024-03-29T14:40:44;1.98;;;1.10;;
40453;SDS011;26160;51.858;4.398;2024-03-29T14:43:19;2.53;;;1.10;;
40453;SDS011;26160;51.858;4.398;2024-03-29T14:45:45;2.33;;;0.90;;
40453;SDS011;26160;51.858;4.398;2024-03-29T14:48:17;3.10;;;1.15;;
40453;SDS011;26160;51.858;4.398;2024-03-29T14:50:44;3.78;;;1.08;;
40453;SDS011;26160;51.858;4.398;2024-03-29T14:53:10;2.30;;;1.02;;
40453;SDS011;26160;51.858;4.398;2024-03-29T14:55:43;3.67;;;1.00;;
40453;SDS011;26160;51.858;4.398;2024-03-29T14:58:09;2.95;;;0.90;;